Terminal Aerodrome Forecast
Issued by NWS

Home | Current Version | Previous Version | Text Only | Print | Product List | Glossary On
Versions: 1 2 3 4 5 6 7 8 9 10 11 12 13 14 15 16
137
FTUS43 KAPX 231149 CCA
TAFMBL
TAF COR
KMBL 231149Z 2312/2412 32010KT P6SM SCT020 BKN035
     FM231400 32011G19KT P6SM SCT020 BKN035
     FM231800 33011G19KT P6SM FEW025 SCT040
     FM232300 36007KT P6SM FEW035 FEW045
     FM240300 VRB03KT P6SM FEW200=

USA.gov is the U.S. government's official web portal to all federal, state and local government web resources and services.